createdAt,value
2019-03-25T00:00:13.966Z,41.89
2019-03-25T00:01:13.959Z,42.05
2019-03-25T00:02:13.953Z,41.89
2019-03-25T00:03:13.947Z,41.73
2019-03-25T00:04:13.941Z,42.21
2019-03-25T00:05:13.937Z,41.89
2019-03-25T00:06:13.927Z,42.70
2019-03-25T00:07:13.917Z,41.89
2019-03-25T00:08:13.911Z,42.53
2019-03-25T00:09:13.906Z,42.05
2019-03-25T00:10:13.899Z,42.05
2019-03-25T00:11:13.895Z,42.21
2019-03-25T00:12:13.888Z,42.37
2019-03-25T00:13:13.878Z,41.89
2019-03-25T00:14:13.875Z,42.21
2019-03-25T00:15:13.869Z,42.05
2019-03-25T00:16:13.863Z,42.37
2019-03-25T00:17:13.858Z,41.89
2019-03-25T00:18:13.848Z,42.37
2019-03-25T00:19:13.843Z,41.89
2019-03-25T00:20:13.835Z,42.21
2019-03-25T00:21:13.831Z,42.21
2019-03-25T00:22:13.821Z,42.21
2019-03-25T00:23:13.817Z,42.21
2019-03-25T00:24:13.810Z,42.21
2019-03-25T00:25:13.801Z,42.21
2019-03-25T00:26:13.797Z,42.53
2019-03-25T00:27:13.790Z,42.05
2019-03-25T00:28:14.003Z,42.05
2019-03-25T00:29:13.778Z,41.89
2019-03-25T00:30:13.769Z,42.21
2019-03-25T00:31:13.764Z,42.05
2019-03-25T00:32:13.757Z,42.21
2019-03-25T00:33:13.750Z,42.21
2019-03-25T00:34:13.743Z,42.05
2019-03-25T00:35:13.737Z,42.05
2019-03-25T00:36:13.736Z,42.21
2019-03-25T00:37:13.723Z,42.21
2019-03-25T00:38:13.715Z,42.05
2019-03-25T00:39:13.706Z,42.21
2019-03-25T00:40:13.701Z,42.05
2019-03-25T00:41:13.696Z,42.37
2019-03-25T00:42:13.687Z,42.53
2019-03-25T00:43:13.684Z,42.05
2019-03-25T00:44:13.677Z,42.21
2019-03-25T00:45:13.666Z,42.05
2019-03-25T00:46:13.685Z,42.05
2019-03-25T00:47:13.679Z,42.53
2019-03-25T00:48:13.672Z,42.21
2019-03-25T00:49:13.669Z,42.05
2019-03-25T00:50:13.661Z,42.05
2019-03-25T00:51:13.653Z,42.21
2019-03-25T00:52:13.644Z,42.05
2019-03-25T00:53:13.639Z,42.21
2019-03-25T00:54:13.629Z,42.21
2019-03-25T00:55:13.625Z,42.37
2019-03-25T00:56:13.619Z,42.21
2019-03-25T00:57:13.613Z,42.05
2019-03-25T00:58:13.607Z,42.21
2019-03-25T00:59:13.598Z,42.05
2019-03-25T01:00:13.594Z,42.53
2019-03-25T01:01:13.584Z,42.05
2019-03-25T01:02:13.579Z,43.34
2019-03-25T01:03:13.574Z,41.89
2019-03-25T01:04:13.567Z,42.21
2019-03-25T01:05:13.558Z,42.05
2019-03-25T01:06:13.550Z,42.21
2019-03-25T01:07:13.545Z,41.89
2019-03-25T01:08:13.538Z,41.73
2019-03-25T01:09:13.532Z,41.89
2019-03-25T01:10:13.528Z,42.21
2019-03-25T01:11:13.518Z,41.89
2019-03-25T01:12:13.510Z,42.05
2019-03-25T01:13:13.504Z,42.21
2019-03-25T01:14:13.498Z,42.21
2019-03-25T01:15:13.490Z,42.05
2019-03-25T01:16:13.485Z,47.53
2019-03-25T01:17:13.481Z,42.05
2019-03-25T01:18:17.030Z,41.89
2019-03-25T01:19:13.462Z,41.89
2019-03-25T01:20:13.476Z,41.89
2019-03-25T01:21:13.450Z,41.73
2019-03-25T01:22:13.440Z,43.50
2019-03-25T01:23:13.432Z,41.73
2019-03-25T01:24:13.430Z,41.89
2019-03-25T01:25:13.419Z,41.73
2019-03-25T01:26:13.413Z,41.89
2019-03-25T01:27:13.429Z,41.89
2019-03-25T01:28:13.422Z,42.53
2019-03-25T01:29:13.411Z,42.21
2019-03-25T01:30:13.410Z,42.05
2019-03-25T01:31:13.400Z,41.89
2019-03-25T01:32:13.397Z,42.05
2019-03-25T01:33:13.388Z,42.05
2019-03-25T01:34:13.379Z,42.53
2019-03-25T01:35:13.376Z,42.21
2019-03-25T01:36:13.366Z,42.05
2019-03-25T01:37:13.360Z,41.89
2019-03-25T01:38:13.353Z,41.89
2019-03-25T01:39:13.344Z,42.05
2019-03-25T01:40:13.336Z,41.73
2019-03-25T01:41:13.336Z,42.05
2019-03-25T01:42:13.326Z,41.73
2019-03-25T01:43:13.340Z,41.89
2019-03-25T01:44:13.338Z,41.89
2019-03-25T01:45:13.330Z,41.89
2019-03-25T01:46:13.327Z,41.73
2019-03-25T01:47:13.318Z,42.21
2019-03-25T01:48:13.311Z,42.05
2019-03-25T01:49:13.304Z,42.53
2019-03-25T01:50:13.298Z,41.73
2019-03-25T01:51:13.288Z,41.73
2019-03-25T01:52:13.283Z,42.37
2019-03-25T01:53:13.279Z,42.05
2019-03-25T01:54:13.273Z,42.05
2019-03-25T01:55:13.892Z,42.05
2019-03-25T01:56:13.255Z,42.21
2019-03-25T01:57:13.249Z,42.53
2019-03-25T01:58:13.238Z,43.66
2019-03-25T01:59:13.236Z,42.21
2019-03-25T02:00:13.228Z,42.05
2019-03-25T02:01:13.220Z,42.21
2019-03-25T02:02:13.214Z,42.21
2019-03-25T02:03:13.214Z,42.05
2019-03-25T02:04:13.202Z,42.21
2019-03-25T02:05:13.195Z,43.18
2019-03-25T02:06:13.190Z,42.21
2019-03-25T02:07:13.181Z,42.21
2019-03-25T02:08:13.177Z,42.70
2019-03-25T02:09:13.170Z,42.21
2019-03-25T02:10:13.165Z,42.70
2019-03-25T02:11:13.157Z,42.05
2019-03-25T02:12:13.151Z,42.21
2019-03-25T02:13:13.144Z,42.21
2019-03-25T02:14:13.138Z,42.05
2019-03-25T02:15:13.129Z,42.05
2019-03-25T02:16:13.121Z,42.05
2019-03-25T02:17:13.119Z,42.21
2019-03-25T02:18:13.109Z,42.21
2019-03-25T02:19:13.102Z,42.21
2019-03-25T02:20:13.099Z,42.21
2019-03-25T02:21:13.091Z,42.21
2019-03-25T02:22:13.088Z,43.18
2019-03-25T02:23:13.202Z,42.05
2019-03-25T02:24:13.094Z,42.21
2019-03-25T02:25:24.541Z,42.37
2019-03-25T02:27:40.836Z,42.05
2019-03-25T02:28:40.826Z,42.53
2019-03-25T02:29:40.820Z,42.21
2019-03-25T02:30:41.022Z,42.21
2019-03-25T02:31:40.812Z,42.21
2019-03-25T02:32:40.806Z,42.37
2019-03-25T02:33:40.833Z,42.21
2019-03-25T02:35:40.829Z,42.37
2019-03-25T02:36:40.824Z,42.37
2019-03-25T02:37:40.814Z,42.21
2019-03-25T02:38:40.808Z,44.31
2019-03-25T02:39:40.806Z,42.37
2019-03-25T02:40:40.796Z,42.21
2019-03-25T02:41:40.790Z,42.21
2019-03-25T02:42:40.781Z,42.21
2019-03-25T02:43:40.776Z,42.21
2019-03-25T02:44:40.774Z,42.05
2019-03-25T02:45:40.769Z,42.37
2019-03-25T02:46:40.762Z,42.37
2019-03-25T02:49:08.482Z,42.21
2019-03-25T02:50:08.479Z,42.21
2019-03-25T02:51:08.462Z,42.21
2019-03-25T02:52:08.457Z,42.21
2019-03-25T02:53:08.462Z,42.70
2019-03-25T02:54:08.443Z,42.21
2019-03-25T02:55:08.432Z,42.21
2019-03-25T02:56:08.427Z,42.53
2019-03-25T02:57:08.420Z,42.21
2019-03-25T02:58:08.414Z,42.21
2019-03-25T02:59:08.405Z,42.21
2019-03-25T03:00:08.399Z,42.05
2019-03-25T03:01:08.399Z,42.21
2019-03-25T03:02:08.385Z,42.86
2019-03-25T03:03:08.378Z,42.53
2019-03-25T03:04:08.374Z,42.37
2019-03-25T03:05:08.366Z,42.21
2019-03-25T03:06:08.360Z,42.70
2019-03-25T03:07:08.356Z,42.37
2019-03-25T03:08:08.344Z,42.86
2019-03-25T03:09:08.335Z,43.82
2019-03-25T03:10:08.339Z,42.21
2019-03-25T03:11:08.346Z,42.21
2019-03-25T03:12:08.340Z,45.76
2019-03-25T03:13:08.333Z,42.21
2019-03-25T03:14:08.335Z,42.37
2019-03-25T03:15:08.335Z,42.37
2019-03-25T03:16:08.326Z,42.21
2019-03-25T03:17:08.323Z,42.21
2019-03-25T03:18:08.316Z,42.21
2019-03-25T03:19:08.316Z,42.37
2019-03-25T03:20:08.305Z,42.37
2019-03-25T03:21:08.296Z,42.05
2019-03-25T03:22:08.291Z,42.37
2019-03-25T03:23:08.284Z,41.89
2019-03-25T03:24:08.276Z,41.89
2019-03-25T03:25:08.272Z,42.37
2019-03-25T03:26:08.280Z,42.05
2019-03-25T03:27:08.259Z,42.05
2019-03-25T03:28:08.251Z,42.05
2019-03-25T03:29:08.247Z,42.05
2019-03-25T03:30:08.242Z,41.73
2019-03-25T03:31:08.236Z,42.05
2019-03-25T03:32:08.227Z,41.89
2019-03-25T03:33:08.224Z,41.89
2019-03-25T03:34:08.218Z,42.21
2019-03-25T03:35:08.217Z,42.37
2019-03-25T03:36:08.209Z,42.05
2019-03-25T03:37:08.199Z,41.89
2019-03-25T03:38:08.198Z,41.73
2019-03-25T03:39:08.201Z,41.89
2019-03-25T03:40:08.182Z,46.40
2019-03-25T03:41:08.171Z,42.05
2019-03-25T03:42:08.164Z,42.37
2019-03-25T03:43:08.159Z,42.86
2019-03-25T03:44:08.165Z,42.37
2019-03-25T03:45:08.147Z,42.37
2019-03-25T03:46:08.138Z,42.53
2019-03-25T03:47:08.134Z,41.73
2019-03-25T03:48:08.129Z,41.89
2019-03-25T03:49:08.121Z,41.57
2019-03-25T03:50:08.111Z,41.89
2019-03-25T03:51:08.108Z,41.89
2019-03-25T03:52:08.101Z,42.37
2019-03-25T03:53:08.119Z,41.89
2019-03-25T03:54:08.097Z,41.41
2019-03-25T03:55:08.095Z,41.41
2019-03-25T03:56:13.591Z,41.57
2019-03-25T03:57:10.072Z,42.05
2019-03-25T03:58:08.065Z,41.41
2019-03-25T03:59:08.057Z,41.73
2019-03-25T04:00:08.051Z,42.05
2019-03-25T04:01:08.076Z,41.89
2019-03-25T04:02:08.066Z,41.73
2019-03-25T04:03:08.063Z,42.21
2019-03-25T04:04:08.063Z,41.89
2019-03-25T04:05:08.055Z,41.25
2019-03-25T04:06:08.049Z,41.73
2019-03-25T04:07:08.038Z,41.89
2019-03-25T04:08:08.037Z,41.89
2019-03-25T04:09:08.037Z,42.05
2019-03-25T04:10:08.018Z,41.73
2019-03-25T04:11:08.009Z,41.25
2019-03-25T04:12:08.002Z,41.57
2019-03-25T04:13:07.998Z,44.63
2019-03-25T04:14:07.996Z,41.25
2019-03-25T04:15:07.998Z,41.73
2019-03-25T04:16:07.976Z,43.50
2019-03-25T04:17:07.973Z,42.05
2019-03-25T04:18:07.963Z,41.57
2019-03-25T04:19:07.961Z,41.89
2019-03-25T04:20:07.952Z,41.73
2019-03-25T04:21:07.943Z,42.70
2019-03-25T04:22:07.940Z,42.53
2019-03-25T04:23:07.929Z,41.57
2019-03-25T04:24:07.920Z,42.05
2019-03-25T04:25:07.913Z,42.05
2019-03-25T04:26:07.909Z,42.21
2019-03-25T04:27:07.917Z,41.89
2019-03-25T04:28:07.909Z,41.57
2019-03-25T04:29:07.924Z,43.66
2019-03-25T04:30:07.906Z,42.37
2019-03-25T04:31:07.902Z,41.89
2019-03-25T04:32:07.893Z,43.02
2019-03-25T04:33:07.883Z,42.21
2019-03-25T04:34:07.897Z,41.41
2019-03-25T04:35:07.868Z,42.05
2019-03-25T04:36:07.860Z,43.02
2019-03-25T04:37:07.856Z,41.41
2019-03-25T04:38:07.852Z,43.50
2019-03-25T04:39:07.843Z,41.73
2019-03-25T04:40:07.837Z,42.86
2019-03-25T04:41:07.830Z,42.05
2019-03-25T04:42:07.826Z,42.53
2019-03-25T04:43:07.821Z,42.37
2019-03-25T04:44:07.809Z,42.21
2019-03-25T04:45:07.808Z,42.21
2019-03-25T04:46:07.797Z,46.72
2019-03-25T04:47:07.790Z,44.15
2019-03-25T04:48:07.784Z,43.50
2019-03-25T04:49:07.780Z,42.05
2019-03-25T04:50:07.779Z,42.37
2019-03-25T04:51:07.764Z,42.05
2019-03-25T04:52:07.755Z,42.53
2019-03-25T04:53:07.750Z,42.53
2019-03-25T04:54:07.742Z,42.37
2019-03-25T04:55:07.735Z,42.37
2019-03-25T04:56:07.745Z,43.02
2019-03-25T04:57:07.725Z,43.02
2019-03-25T04:58:07.718Z,42.53
2019-03-25T04:59:07.711Z,42.37
2019-03-25T05:00:07.704Z,42.05
2019-03-25T05:01:07.698Z,47.21
2019-03-25T05:02:07.694Z,41.89
2019-03-25T05:03:07.688Z,42.05
2019-03-25T05:04:07.690Z,42.37
2019-03-25T05:05:07.691Z,42.86
2019-03-25T05:06:07.670Z,42.53
2019-03-25T05:07:07.663Z,42.86
2019-03-25T05:08:07.659Z,41.89
2019-03-25T05:09:07.656Z,44.79
2019-03-25T05:10:07.647Z,42.86
2019-03-25T05:11:07.642Z,42.86
2019-03-25T05:12:07.636Z,42.05
2019-03-25T05:13:07.630Z,42.86
2019-03-25T05:14:07.623Z,42.70
2019-03-25T05:15:07.615Z,41.89
2019-03-25T05:16:07.610Z,41.89
2019-03-25T05:17:07.607Z,41.89
2019-03-25T05:18:07.598Z,42.37
2019-03-25T05:19:07.592Z,42.05
2019-03-25T05:20:07.585Z,45.43
2019-03-25T05:21:07.629Z,42.53
2019-03-25T05:22:07.569Z,42.86
2019-03-25T05:23:07.565Z,42.21
2019-03-25T05:24:07.555Z,43.50
2019-03-25T05:25:07.548Z,44.63
2019-03-25T05:26:07.544Z,42.70
2019-03-25T05:27:07.537Z,43.98
2019-03-25T05:28:07.536Z,42.70
2019-03-25T05:29:07.525Z,42.53
2019-03-25T05:30:07.523Z,45.92
2019-03-25T05:31:07.512Z,48.50
2019-03-25T05:32:07.507Z,42.70
2019-03-25T05:33:07.499Z,43.66
2019-03-25T05:34:07.491Z,42.86
2019-03-25T05:35:07.491Z,42.53
2019-03-25T05:36:07.481Z,43.34
2019-03-25T05:37:07.476Z,42.53
2019-03-25T05:38:07.469Z,43.82
2019-03-25T05:39:07.461Z,43.98
2019-03-25T05:40:07.461Z,42.53
2019-03-25T05:41:07.452Z,42.86
2019-03-25T05:42:07.445Z,42.86
2019-03-25T05:43:07.442Z,43.18
2019-03-25T05:44:07.434Z,44.31
2019-03-25T05:45:07.447Z,42.53
2019-03-25T05:46:07.420Z,44.95
2019-03-25T05:47:07.412Z,42.86
2019-03-25T05:48:07.407Z,44.63
2019-03-25T05:49:07.403Z,43.50
2019-03-25T05:50:09.124Z,45.11
2019-03-25T05:51:07.388Z,42.37
2019-03-25T05:52:07.383Z,46.56
2019-03-25T05:53:07.373Z,42.53
2019-03-25T05:54:07.367Z,42.70
2019-03-25T05:55:07.359Z,41.89
2019-03-25T05:56:07.354Z,42.86
2019-03-25T05:57:07.348Z,42.37
2019-03-25T05:58:07.342Z,42.86
2019-03-25T05:59:07.332Z,45.76
2019-03-25T06:00:07.328Z,42.53
2019-03-25T06:01:07.324Z,42.37
2019-03-25T06:02:07.315Z,42.86
2019-03-25T06:03:07.307Z,42.53
2019-03-25T06:04:07.301Z,42.21
2019-03-25T06:05:07.295Z,42.37
2019-03-25T06:06:07.287Z,45.11
2019-03-25T06:07:07.284Z,44.63
2019-03-25T06:08:07.278Z,43.18
2019-03-25T06:09:07.273Z,45.27
2019-03-25T06:10:07.267Z,42.37
2019-03-25T06:11:07.260Z,42.21
2019-03-25T06:12:07.258Z,42.86
2019-03-25T06:13:07.248Z,42.53
2019-03-25T06:14:07.241Z,42.37
2019-03-25T06:15:07.234Z,42.70
2019-03-25T06:16:07.238Z,42.21
2019-03-25T06:17:07.223Z,44.15
2019-03-25T06:18:07.215Z,42.53
2019-03-25T06:19:07.209Z,42.37
2019-03-25T06:20:07.206Z,46.08
2019-03-25T06:21:07.199Z,45.43
2019-03-25T06:22:07.191Z,43.18
2019-03-25T06:23:07.186Z,46.08
2019-03-25T06:24:08.602Z,43.82
2019-03-25T06:25:07.173Z,43.02
2019-03-25T06:26:07.166Z,42.37
2019-03-25T06:27:14.099Z,43.02
2019-03-25T06:29:34.948Z,42.86
2019-03-25T06:30:34.940Z,45.92
2019-03-25T06:31:34.933Z,43.34
2019-03-25T06:32:34.926Z,42.70
2019-03-25T06:33:34.919Z,43.02
2019-03-25T06:34:34.915Z,43.18
2019-03-25T06:35:34.912Z,42.86
2019-03-25T06:36:34.902Z,43.98
2019-03-25T06:37:34.897Z,42.37
2019-03-25T06:38:34.887Z,42.70
2019-03-25T06:39:34.882Z,43.50
2019-03-25T06:40:34.875Z,43.34
2019-03-25T06:41:34.870Z,42.53
2019-03-25T06:42:34.884Z,45.76
2019-03-25T06:43:34.879Z,44.95
2019-03-25T06:44:34.872Z,44.15
2019-03-25T06:45:34.868Z,44.63
2019-03-25T06:46:34.860Z,42.86
2019-03-25T06:47:34.854Z,42.37
2019-03-25T06:48:34.848Z,42.86
2019-03-25T06:49:34.842Z,42.86
2019-03-25T06:50:34.833Z,42.21
2019-03-25T06:51:34.828Z,48.50
2019-03-25T06:52:34.819Z,42.86
2019-03-25T06:53:34.816Z,44.31
2019-03-25T06:54:34.807Z,45.60
2019-03-25T06:55:34.799Z,44.63
2019-03-25T06:56:34.791Z,42.86
2019-03-25T06:57:34.787Z,42.86
2019-03-25T06:58:34.777Z,42.70
2019-03-25T06:59:34.772Z,42.53
2019-03-25T07:00:34.810Z,45.11
2019-03-25T07:01:34.754Z,43.82
2019-03-25T07:02:34.752Z,43.02
2019-03-25T07:03:34.742Z,43.34
2019-03-25T07:04:34.735Z,44.47
2019-03-25T07:05:34.740Z,45.60
2019-03-25T07:06:34.724Z,43.18
2019-03-25T07:07:34.717Z,43.02
2019-03-25T07:08:34.711Z,42.86
2019-03-25T07:09:34.905Z,46.08
2019-03-25T07:10:34.698Z,43.02
2019-03-25T07:11:34.691Z,43.98
2019-03-25T07:12:34.683Z,44.95
2019-03-25T07:13:34.678Z,45.27
2019-03-25T07:14:34.670Z,47.37
2019-03-25T07:15:34.663Z,42.53
2019-03-25T07:16:34.656Z,42.70
2019-03-25T07:17:34.672Z,42.86
2019-03-25T07:18:34.662Z,45.43
2019-03-25T07:19:34.655Z,44.47
2019-03-25T07:20:34.651Z,45.60
2019-03-25T07:21:34.665Z,43.02
2019-03-25T07:22:34.663Z,43.34
2019-03-25T07:23:34.655Z,43.82
2019-03-25T07:24:34.647Z,43.02
2019-03-25T07:25:34.642Z,42.53
2019-03-25T07:26:34.638Z,43.66
2019-03-25T07:27:37.004Z,42.86
2019-03-25T07:28:34.625Z,45.92
2019-03-25T07:29:34.619Z,43.18
2019-03-25T07:30:34.611Z,46.56
2019-03-25T07:31:34.603Z,42.86
2019-03-25T07:32:34.598Z,43.02
2019-03-25T07:33:34.590Z,44.95
2019-03-25T07:34:34.579Z,42.86
2019-03-25T07:35:34.576Z,43.50
2019-03-25T07:36:34.567Z,43.34
2019-03-25T07:37:34.609Z,42.70
2019-03-25T07:38:34.553Z,43.02
2019-03-25T07:39:34.546Z,46.88
2019-03-25T07:40:34.540Z,44.31
2019-03-25T07:41:34.534Z,46.72
2019-03-25T07:42:34.525Z,42.05
2019-03-25T07:43:34.520Z,43.98
2019-03-25T07:44:34.515Z,42.53
2019-03-25T07:45:34.509Z,43.66
2019-03-25T07:46:34.499Z,42.86
2019-03-25T07:47:34.493Z,42.53
2019-03-25T07:48:34.488Z,42.53
2019-03-25T07:49:34.479Z,42.86
2019-03-25T07:50:34.474Z,44.47
2019-03-25T07:51:34.467Z,45.60
2019-03-25T07:52:34.461Z,42.53
2019-03-25T07:53:34.453Z,43.02
2019-03-25T07:54:34.454Z,42.53
2019-03-25T07:55:34.446Z,43.18
2019-03-25T07:56:34.435Z,42.70
2019-03-25T07:57:34.450Z,42.70
2019-03-25T07:58:34.444Z,42.70
2019-03-25T07:59:34.432Z,43.02
2019-03-25T08:00:34.415Z,44.95
2019-03-25T08:01:34.437Z,44.15
2019-03-25T08:02:34.401Z,44.31
2019-03-25T08:03:34.391Z,45.27
2019-03-25T08:04:34.393Z,44.15
2019-03-25T08:05:34.399Z,45.27
2019-03-25T08:06:34.378Z,46.24
2019-03-25T08:07:34.377Z,43.02
2019-03-25T08:08:34.355Z,43.98
2019-03-25T08:09:34.356Z,57.20
2019-03-25T08:10:34.369Z,56.71
2019-03-25T08:11:34.362Z,55.26
2019-03-25T08:12:34.335Z,42.05
2019-03-25T08:13:34.319Z,56.71
2019-03-25T08:14:34.313Z,57.52
2019-03-25T08:15:34.320Z,45.92
2019-03-25T08:16:34.302Z,42.53
2019-03-25T08:17:34.294Z,42.86
2019-03-25T08:18:34.287Z,46.40
2019-03-25T08:19:34.290Z,47.53
2019-03-25T08:20:34.275Z,52.36
2019-03-25T08:21:34.272Z,57.36
2019-03-25T08:22:34.263Z,57.84
2019-03-25T08:23:34.258Z,58.00
2019-03-25T08:24:34.255Z,56.55
2019-03-25T08:25:34.245Z,58.65
2019-03-25T08:26:34.236Z,58.65
2019-03-25T08:27:34.234Z,58.65
2019-03-25T08:28:34.224Z,59.13
2019-03-25T08:29:34.216Z,43.18
2019-03-25T08:30:34.213Z,42.21
2019-03-25T08:31:34.204Z,43.02
2019-03-25T08:32:34.199Z,43.98
2019-03-25T08:33:34.192Z,62.19
2019-03-25T08:34:34.185Z,61.71
2019-03-25T08:35:34.189Z,61.71
2019-03-25T08:36:34.182Z,63.00
2019-03-25T08:37:34.174Z,62.68
2019-03-25T08:38:34.166Z,62.03
2019-03-25T08:39:34.161Z,42.86
2019-03-25T08:40:34.155Z,60.26
2019-03-25T08:41:34.149Z,62.51
2019-03-25T08:42:34.140Z,42.37
2019-03-25T08:43:34.133Z,44.95
2019-03-25T08:44:34.127Z,60.58
2019-03-25T08:45:34.122Z,61.39
2019-03-25T08:46:34.116Z,62.03
2019-03-25T08:47:34.108Z,62.35
2019-03-25T08:48:34.100Z,65.09
2019-03-25T08:49:34.093Z,61.39
2019-03-25T08:50:34.085Z,50.59
2019-03-25T08:51:34.080Z,43.98
2019-03-25T08:52:34.073Z,45.92
2019-03-25T08:53:34.063Z,47.69
2019-03-25T08:54:34.055Z,61.06
2019-03-25T08:55:34.050Z,60.42
2019-03-25T08:56:34.044Z,62.84
2019-03-25T08:57:34.036Z,61.23
2019-03-25T08:58:34.029Z,61.71
2019-03-25T08:59:34.172Z,60.58
2019-03-25T09:00:34.029Z,59.94
2019-03-25T09:01:34.022Z,60.42
2019-03-25T09:02:34.015Z,43.02
2019-03-25T09:03:34.010Z,42.05
2019-03-25T09:04:34.000Z,42.53
2019-03-25T09:05:33.995Z,46.08
2019-03-25T09:06:33.989Z,44.47
2019-03-25T09:07:33.982Z,45.92
2019-03-25T09:08:33.975Z,45.60
2019-03-25T09:09:33.969Z,44.95
2019-03-25T09:10:33.962Z,44.47
2019-03-25T09:11:33.957Z,41.08
2019-03-25T09:12:33.949Z,43.02
2019-03-25T09:13:33.944Z,48.66
2019-03-25T09:14:33.937Z,45.27
2019-03-25T09:15:33.931Z,43.66
2019-03-25T09:16:33.926Z,44.79
2019-03-25T09:17:33.920Z,45.43
2019-03-25T09:18:33.915Z,56.87
2019-03-25T09:19:33.906Z,60.10
2019-03-25T09:20:33.902Z,59.61
2019-03-25T09:21:33.896Z,59.45
2019-03-25T09:22:33.888Z,42.21
2019-03-25T09:23:33.882Z,44.47
2019-03-25T09:24:33.876Z,59.61
2019-03-25T09:25:33.869Z,57.36
2019-03-25T09:26:33.865Z,56.07
2019-03-25T09:27:33.856Z,45.43
2019-03-25T09:28:33.848Z,42.37
2019-03-25T09:29:33.841Z,57.52
2019-03-25T09:30:33.834Z,57.68
2019-03-25T09:31:36.923Z,59.29
2019-03-25T09:32:33.824Z,59.29
2019-03-25T09:33:33.815Z,58.81
2019-03-25T09:34:33.809Z,41.89
2019-03-25T09:35:33.802Z,46.40
2019-03-25T09:36:33.830Z,60.26
2019-03-25T09:37:33.787Z,58.33
2019-03-25T09:38:33.782Z,61.55
2019-03-25T09:39:33.775Z,55.91
2019-03-25T09:40:33.767Z,56.71
2019-03-25T09:41:33.759Z,55.26
2019-03-25T09:42:33.753Z,47.21
2019-03-25T09:43:33.746Z,55.42
2019-03-25T09:44:33.741Z,56.71
2019-03-25T09:45:33.733Z,54.62
2019-03-25T09:46:33.729Z,60.26
2019-03-25T09:47:33.722Z,47.85
2019-03-25T09:48:33.718Z,56.23
2019-03-25T09:49:33.709Z,56.55
2019-03-25T09:50:33.705Z,56.23
2019-03-25T09:51:33.695Z,57.36
2019-03-25T09:52:38.518Z,57.36
2019-03-25T09:53:33.683Z,41.25
2019-03-25T09:54:33.701Z,42.70
2019-03-25T09:55:33.692Z,57.36
2019-03-25T09:56:33.688Z,57.36
2019-03-25T09:57:33.682Z,42.37
2019-03-25T09:58:36.614Z,42.05
2019-03-25T09:59:33.670Z,41.89
2019-03-25T10:00:33.664Z,45.76
2019-03-25T10:01:33.657Z,44.31
2019-03-25T10:02:33.653Z,44.63
2019-03-25T10:03:33.644Z,42.70
2019-03-25T10:04:33.636Z,46.40
2019-03-25T10:05:33.687Z,41.57
2019-03-25T10:06:33.623Z,41.41
2019-03-25T10:07:33.619Z,42.05
2019-03-25T10:08:33.610Z,42.37
2019-03-25T10:09:33.605Z,42.37
2019-03-25T10:10:33.599Z,42.21
2019-03-25T10:11:33.592Z,52.85
2019-03-25T10:12:33.587Z,54.30
2019-03-25T10:13:33.591Z,45.43
2019-03-25T10:14:33.573Z,53.17
2019-03-25T10:15:33.564Z,52.04
2019-03-25T10:16:33.560Z,44.63
2019-03-25T10:17:33.559Z,45.60
2019-03-25T10:18:33.543Z,54.94
2019-03-25T10:19:33.538Z,56.55
2019-03-25T10:20:33.533Z,54.14
2019-03-25T10:21:33.529Z,44.31
2019-03-25T10:22:33.519Z,47.05
2019-03-25T10:23:33.512Z,46.40
2019-03-25T10:24:33.508Z,46.08
2019-03-25T10:25:33.500Z,41.57
2019-03-25T10:26:33.492Z,42.05
2019-03-25T10:27:33.484Z,41.73
2019-03-25T10:28:33.510Z,42.21
2019-03-25T10:29:33.498Z,45.11
2019-03-25T10:30:33.489Z,43.02
2019-03-25T10:31:33.490Z,42.05
2019-03-25T10:32:33.475Z,42.21
2019-03-25T10:33:33.469Z,42.86
2019-03-25T10:34:33.471Z,54.62
2019-03-25T10:35:33.460Z,42.21
2019-03-25T10:36:33.454Z,45.60
2019-03-25T10:37:33.447Z,42.70
2019-03-25T10:38:33.439Z,43.66
2019-03-25T10:39:33.434Z,43.50
2019-03-25T10:40:33.425Z,42.21
2019-03-25T10:41:33.424Z,46.88
2019-03-25T10:42:33.412Z,44.95
2019-03-25T10:43:33.407Z,45.43
2019-03-25T10:44:33.399Z,45.11
2019-03-25T10:45:33.393Z,43.18
2019-03-25T10:46:33.387Z,45.27
2019-03-25T10:47:33.379Z,47.21
2019-03-25T10:48:33.376Z,41.57
2019-03-25T10:49:33.370Z,41.73
2019-03-25T10:50:33.385Z,43.02
2019-03-25T10:51:33.382Z,42.70
2019-03-25T10:52:33.373Z,42.37
2019-03-25T10:53:33.364Z,46.40
2019-03-25T10:54:33.451Z,44.15
2019-03-25T10:55:33.356Z,42.53
2019-03-25T10:56:33.355Z,41.89
2019-03-25T10:57:33.342Z,42.37
2019-03-25T10:58:33.336Z,42.21
2019-03-25T10:59:33.330Z,42.21
2019-03-25T11:00:33.323Z,44.31
2019-03-25T11:01:33.323Z,42.37
2019-03-25T11:02:33.310Z,43.02
2019-03-25T11:03:33.303Z,44.47
2019-03-25T11:04:33.298Z,45.11
2019-03-25T11:05:33.296Z,43.98
2019-03-25T11:06:33.283Z,42.86
2019-03-25T11:07:33.363Z,44.79
2019-03-25T11:08:33.273Z,42.70
2019-03-25T11:09:33.268Z,42.05
2019-03-25T11:10:33.258Z,42.53
2019-03-25T11:11:33.250Z,44.15
2019-03-25T11:12:33.246Z,43.02
2019-03-25T11:13:33.234Z,42.86
2019-03-25T11:14:33.230Z,42.21
2019-03-25T11:15:33.224Z,43.18
2019-03-25T11:16:33.219Z,45.11
2019-03-25T11:17:33.214Z,43.50
2019-03-25T11:18:33.206Z,41.89
2019-03-25T11:19:33.225Z,42.21
2019-03-25T11:20:33.220Z,44.31
2019-03-25T11:21:33.208Z,46.08
2019-03-25T11:22:33.205Z,48.66
2019-03-25T11:23:33.198Z,44.95
2019-03-25T11:24:33.187Z,42.86
2019-03-25T11:25:33.182Z,47.53
2019-03-25T11:26:33.173Z,42.21
2019-03-25T11:27:33.167Z,42.70
2019-03-25T11:28:33.160Z,42.53
2019-03-25T11:29:33.156Z,44.31
2019-03-25T11:30:33.151Z,42.86
2019-03-25T11:31:33.145Z,45.43
2019-03-25T11:32:33.136Z,42.86
2019-03-25T11:33:33.131Z,45.92
2019-03-25T11:34:33.144Z,42.21
2019-03-25T11:35:33.119Z,45.27
2019-03-25T11:36:33.114Z,47.53
2019-03-25T11:37:33.103Z,43.82
2019-03-25T11:38:33.099Z,46.88
2019-03-25T11:39:33.114Z,42.86
2019-03-25T11:40:33.108Z,42.86
2019-03-25T11:41:33.102Z,42.37
2019-03-25T11:42:33.095Z,45.11
2019-03-25T11:43:33.090Z,44.15
2019-03-25T11:44:33.085Z,42.37
2019-03-25T11:45:33.075Z,42.53
2019-03-25T11:46:33.068Z,42.70
2019-03-25T11:47:33.066Z,44.47
2019-03-25T11:48:33.061Z,42.37
2019-03-25T11:49:33.050Z,42.21
2019-03-25T11:50:33.044Z,42.37
2019-03-25T11:51:33.036Z,41.57
2019-03-25T11:52:33.031Z,41.89
2019-03-25T11:53:33.021Z,41.89
2019-03-25T11:54:33.016Z,44.63
2019-03-25T11:55:33.009Z,47.85
2019-03-25T11:56:33.002Z,43.66
2019-03-25T11:57:32.997Z,42.37
2019-03-25T11:58:32.992Z,42.37
2019-03-25T11:59:32.986Z,45.60
2019-03-25T12:00:32.982Z,44.63
2019-03-25T12:01:32.974Z,45.43
2019-03-25T12:02:32.964Z,42.37
2019-03-25T12:03:32.958Z,44.31
2019-03-25T12:04:32.951Z,43.98
2019-03-25T12:05:32.946Z,43.50
2019-03-25T12:06:32.939Z,45.92
2019-03-25T12:07:32.932Z,41.89
2019-03-25T12:08:32.924Z,45.76
2019-03-25T12:09:32.940Z,46.40
2019-03-25T12:10:32.937Z,43.18
2019-03-25T12:11:32.927Z,43.18
2019-03-25T12:12:32.920Z,43.50
2019-03-25T12:13:32.914Z,43.66
2019-03-25T12:14:32.909Z,42.21
2019-03-25T12:15:32.901Z,42.53
2019-03-25T12:16:32.895Z,42.21
2019-03-25T12:17:32.888Z,42.21
2019-03-25T12:18:32.880Z,42.37
2019-03-25T12:19:32.875Z,43.66
2019-03-25T12:20:32.869Z,42.05
2019-03-25T12:21:32.864Z,42.05
2019-03-25T12:22:32.907Z,45.60
2019-03-25T12:23:32.853Z,43.34
2019-03-25T12:24:32.855Z,46.24
2019-03-25T12:25:32.836Z,43.98
2019-03-25T12:26:32.830Z,43.50
2019-03-25T12:27:32.903Z,44.63
2019-03-25T12:28:32.843Z,44.15
2019-03-25T12:29:32.843Z,43.02
2019-03-25T12:30:32.829Z,42.37
2019-03-25T12:31:32.824Z,44.47
2019-03-25T12:32:32.816Z,42.86
2019-03-25T12:33:32.810Z,42.05
2019-03-25T12:34:32.986Z,41.73
2019-03-25T12:35:32.799Z,42.21
2019-03-25T12:36:32.819Z,54.30
2019-03-25T12:37:32.805Z,42.37
2019-03-25T12:38:32.798Z,41.89
2019-03-25T12:39:32.791Z,42.21
2019-03-25T12:40:32.784Z,44.79
2019-03-25T12:41:32.775Z,42.86
2019-03-25T12:42:32.771Z,42.53
2019-03-25T12:43:32.763Z,41.89
2019-03-25T12:44:32.755Z,42.37
2019-03-25T12:45:32.751Z,44.15
2019-03-25T12:46:32.743Z,42.70
2019-03-25T12:47:32.737Z,42.53
2019-03-25T12:48:32.730Z,46.88
2019-03-25T12:49:32.726Z,46.88
2019-03-25T12:50:32.741Z,41.89
2019-03-25T12:51:32.733Z,42.05
2019-03-25T12:52:32.723Z,42.05
2019-03-25T12:53:32.716Z,44.47
2019-03-25T12:54:32.761Z,42.37
2019-03-25T12:55:32.704Z,42.70
2019-03-25T12:56:32.696Z,45.92
2019-03-25T12:57:32.689Z,42.86